createdAt,value
2019-03-03T13:34:40.924Z,47.74
2019-03-03T13:59:34.157Z,36.42
2019-03-03T14:02:07.030Z,38.80
2019-03-03T14:04:41.162Z,41.58
2019-03-03T14:07:13.836Z,44.43
2019-03-03T14:09:46.526Z,47.14
2019-03-03T14:12:19.102Z,49.55
2019-03-03T14:14:52.782Z,51.40
2019-03-03T14:17:25.365Z,53.01
2019-03-03T14:20:00.636Z,54.54
2019-03-03T14:22:34.363Z,55.65
2019-03-03T14:25:08.980Z,56.52
2019-03-03T14:27:41.830Z,57.16
2019-03-03T14:30:18.484Z,57.67
2019-03-03T14:32:51.130Z,58.22
2019-03-03T14:35:23.639Z,58.60
2019-03-03T14:37:56.296Z,58.30
2019-03-03T14:41:31.371Z,58.66
2019-03-03T14:43:40.132Z,59.13
2019-03-03T14:45:47.851Z,59.11
2019-03-03T14:47:55.532Z,59.15
2019-03-03T14:50:03.075Z,59.32
2019-03-03T14:52:10.658Z,59.36
2019-03-03T14:54:18.331Z,59.32
2019-03-03T14:56:25.960Z,59.42
2019-03-03T14:58:33.612Z,59.62
2019-03-03T15:00:42.153Z,59.68
2019-03-03T15:02:49.635Z,59.76
2019-03-03T15:04:57.211Z,59.84
2019-03-03T15:07:04.825Z,59.99
2019-03-03T15:09:14.012Z,60.40
2019-03-03T15:11:22.034Z,60.35
2019-03-03T15:13:29.648Z,60.59
2019-03-03T15:15:40.985Z,60.60
2019-03-03T15:17:48.533Z,60.53
2019-03-03T15:19:56.353Z,60.66
2019-03-03T15:22:04.195Z,60.89
2019-03-03T15:24:12.914Z,60.90
2019-03-03T15:26:20.519Z,61.09
2019-03-03T15:28:28.317Z,61.21
2019-03-03T15:30:36.066Z,61.31
2019-03-03T15:32:43.781Z,61.52
2019-03-03T15:34:51.427Z,61.38
2019-03-03T15:36:59.029Z,61.63
2019-03-03T15:39:08.945Z,61.59
2019-03-03T15:41:18.198Z,61.78
2019-03-03T15:43:25.682Z,61.90
2019-03-03T15:45:33.461Z,61.85
2019-03-03T15:47:42.332Z,62.01
2019-03-03T15:49:49.812Z,61.99
2019-03-03T15:51:57.384Z,62.24
2019-03-03T15:54:05.200Z,62.22
2019-03-03T15:56:12.921Z,62.25
2019-03-03T15:58:20.536Z,62.10
2019-03-03T16:00:39.967Z,62.26
2019-03-03T16:02:48.364Z,62.20
2019-03-03T16:04:55.878Z,62.38
2019-03-03T16:07:03.454Z,62.40
2019-03-03T16:09:12.822Z,62.39
2019-03-03T16:11:20.472Z,62.40
2019-03-03T16:13:28.010Z,62.54
2019-03-03T16:15:35.591Z,62.48
2019-03-03T16:17:43.444Z,62.34
2019-03-03T16:19:51.026Z,62.33
2019-03-03T16:21:58.676Z,62.39
2019-03-03T16:24:08.555Z,62.47
2019-03-03T16:26:15.673Z,62.50
2019-03-03T16:28:23.231Z,62.52
2019-03-03T16:30:30.981Z,62.60
2019-03-03T16:32:38.565Z,62.67
2019-03-03T16:34:46.218Z,62.69
2019-03-03T16:36:53.822Z,62.69
2019-03-03T16:39:01.477Z,62.77
2019-03-03T16:41:10.666Z,62.72
2019-03-03T16:43:18.346Z,62.83
2019-03-03T16:45:25.824Z,62.85
2019-03-03T16:47:33.310Z,62.85
2019-03-03T16:49:40.974Z,62.72
2019-03-03T16:51:48.673Z,62.72
2019-03-03T16:53:56.254Z,62.69
2019-03-03T16:56:03.937Z,62.75
2019-03-03T16:58:11.688Z,62.45
2019-03-03T17:00:26.785Z,62.44
2019-03-03T17:02:34.422Z,62.31
2019-03-03T17:04:42.185Z,62.39
2019-03-03T17:06:49.772Z,62.44
2019-03-03T17:08:57.389Z,62.37
2019-03-03T17:11:04.853Z,62.41
2019-03-03T17:13:12.437Z,62.42
2019-03-03T17:15:28.233Z,62.50
2019-03-03T17:17:35.886Z,62.53
2019-03-03T17:19:44.759Z,62.47
2019-03-03T17:21:52.366Z,62.70
2019-03-03T17:23:59.948Z,62.70
2019-03-03T17:26:09.447Z,62.87
2019-03-03T17:28:16.915Z,62.92
2019-03-03T17:30:29.631Z,62.96
2019-03-03T17:32:37.155Z,63.27
2019-03-03T17:34:44.667Z,63.40
2019-03-03T17:36:52.322Z,63.39
2019-03-03T17:38:59.803Z,63.47
2019-03-03T17:41:07.473Z,63.59
2019-03-03T17:43:15.123Z,63.62
2019-03-03T17:45:24.106Z,63.59
2019-03-03T17:47:31.614Z,63.54
2019-03-03T17:49:39.200Z,63.44
2019-03-03T17:51:46.682Z,63.58
2019-03-03T17:53:55.000Z,63.60
2019-03-03T17:56:03.293Z,63.83
2019-03-03T17:58:11.659Z,64.65
2019-03-03T18:00:46.310Z,65.44
2019-03-03T18:02:55.617Z,66.31
2019-03-03T18:05:05.708Z,66.79
2019-03-03T18:07:13.757Z,67.04
2019-03-03T18:09:22.018Z,67.63
2019-03-03T18:11:30.067Z,67.84
2019-03-03T18:13:38.405Z,68.24
2019-03-03T18:15:47.014Z,68.21
2019-03-03T18:17:55.589Z,68.52
2019-03-03T18:20:03.670Z,68.74
2019-03-03T18:22:11.233Z,68.94
2019-03-03T18:24:18.805Z,69.04
2019-03-03T18:26:26.491Z,69.08
2019-03-03T18:28:34.060Z,69.10
2019-03-03T18:30:41.702Z,69.07
2019-03-03T18:32:49.642Z,69.16
2019-03-03T18:34:57.211Z,69.17
2019-03-03T18:37:05.058Z,69.15
2019-03-03T18:39:12.736Z,69.31
2019-03-03T18:41:20.307Z,69.36
2019-03-03T18:43:28.011Z,69.39
2019-03-03T18:45:35.790Z,69.53
2019-03-03T18:47:43.737Z,69.51
2019-03-03T18:49:51.267Z,69.65
2019-03-03T18:51:58.871Z,69.74
2019-03-03T18:54:06.594Z,69.74
2019-03-03T18:56:14.170Z,69.81
2019-03-03T18:58:21.674Z,70.05
2019-03-03T19:00:32.188Z,70.19
2019-03-03T19:02:39.976Z,70.34
2019-03-03T19:04:47.661Z,70.21
2019-03-03T19:06:56.167Z,70.20
2019-03-03T19:09:03.792Z,70.28
2019-03-03T19:11:12.998Z,70.22
2019-03-03T19:13:20.684Z,70.12
2019-03-03T19:15:28.333Z,70.17
2019-03-03T19:17:36.177Z,70.19
2019-03-03T19:19:44.834Z,70.17
2019-03-03T19:21:52.527Z,70.10
2019-03-03T19:24:00.147Z,69.90
2019-03-03T19:26:07.623Z,70.11
2019-03-03T19:28:16.526Z,70.04
2019-03-03T19:30:28.985Z,69.89
2019-03-03T19:32:36.547Z,70.02
2019-03-03T19:34:44.105Z,69.79
2019-03-03T19:36:51.725Z,69.77
2019-03-03T19:38:59.311Z,69.53
2019-03-03T19:41:06.853Z,69.72
2019-03-03T19:43:14.540Z,69.65
2019-03-03T19:45:37.946Z,69.65
2019-03-03T19:47:45.829Z,69.51
2019-03-03T19:49:53.571Z,69.31
2019-03-03T19:52:01.471Z,69.31
2019-03-03T19:54:10.133Z,69.30
2019-03-03T19:56:17.761Z,69.06
2019-03-03T19:58:25.467Z,69.02
2019-03-03T20:00:44.065Z,69.00
2019-03-03T20:02:51.749Z,68.89
2019-03-03T20:04:59.363Z,68.82
2019-03-03T20:07:07.446Z,68.72
2019-03-03T20:09:15.705Z,68.67
2019-03-03T20:11:23.247Z,68.55
2019-03-03T20:13:30.993Z,68.41
2019-03-03T20:15:39.136Z,68.37
2019-03-03T20:17:47.847Z,68.11
2019-03-03T20:19:55.390Z,68.10
2019-03-03T20:22:02.994Z,67.89
2019-03-03T20:24:10.640Z,67.89
2019-03-03T20:26:20.879Z,67.72
2019-03-03T20:28:28.713Z,67.65
2019-03-03T20:30:37.995Z,67.38
2019-03-03T20:32:46.039Z,67.29
2019-03-03T20:34:53.757Z,67.12
2019-03-03T20:37:02.775Z,67.05
2019-03-03T20:39:10.588Z,66.87
2019-03-03T20:41:18.371Z,66.75
2019-03-03T20:43:25.950Z,66.57
2019-03-03T20:45:34.739Z,66.26
2019-03-03T20:47:42.292Z,66.17
2019-03-03T20:49:49.903Z,66.04
2019-03-03T20:51:57.469Z,66.23
2019-03-03T20:54:05.178Z,66.30
2019-03-03T20:56:12.819Z,66.67
2019-03-03T20:58:20.466Z,66.47
2019-03-03T21:00:33.056Z,66.39
2019-03-03T21:02:40.629Z,66.01
2019-03-03T21:04:48.202Z,65.94
2019-03-03T21:06:55.808Z,65.97
2019-03-03T21:09:04.458Z,65.66
2019-03-03T21:11:13.625Z,65.74
2019-03-03T21:13:21.304Z,65.53
2019-03-03T21:15:29.030Z,66.11
2019-03-03T21:17:36.685Z,66.34
2019-03-03T21:19:44.374Z,66.16
2019-03-03T21:21:51.914Z,65.63
2019-03-03T21:24:00.575Z,65.59
2019-03-03T21:26:08.089Z,65.42
2019-03-03T21:28:15.676Z,65.62
2019-03-03T21:30:25.638Z,65.48
2019-03-03T21:32:33.413Z,65.43
2019-03-03T21:34:40.994Z,65.45
2019-03-03T21:36:48.749Z,65.27
2019-03-03T21:38:56.397Z,65.64
2019-03-03T21:41:04.015Z,65.57
2019-03-03T21:43:12.672Z,65.43
2019-03-03T21:45:30.651Z,65.59
2019-03-03T21:47:38.230Z,65.41
2019-03-03T21:49:45.713Z,65.22
2019-03-03T21:51:54.294Z,65.17
2019-03-03T21:54:01.989Z,65.16
2019-03-03T21:56:09.675Z,65.22
2019-03-03T21:58:17.642Z,65.09
2019-03-03T22:00:43.467Z,64.98
2019-03-03T22:02:51.051Z,64.89
2019-03-03T22:04:58.657Z,65.13
2019-03-03T22:07:06.308Z,65.20
2019-03-03T22:09:15.291Z,65.09
2019-03-03T22:11:24.497Z,65.10
2019-03-03T22:13:32.085Z,64.97
2019-03-03T22:15:39.632Z,65.18
2019-03-03T22:17:47.146Z,65.20
2019-03-03T22:19:54.638Z,65.32
2019-03-03T22:22:02.211Z,65.12
2019-03-03T22:24:09.824Z,65.18
2019-03-03T22:26:17.403Z,65.45
2019-03-03T22:28:24.884Z,65.39
2019-03-03T22:30:32.463Z,65.55
2019-03-03T22:32:40.318Z,65.61
2019-03-03T22:34:47.900Z,65.47
2019-03-03T22:36:55.501Z,65.65
2019-03-03T22:39:03.081Z,65.73
2019-03-03T22:41:12.135Z,65.81
2019-03-03T22:43:21.403Z,65.87
2019-03-03T22:45:29.071Z,66.06
2019-03-03T22:47:36.643Z,66.43
2019-03-03T22:49:44.394Z,66.65
2019-03-03T22:51:51.868Z,66.74
2019-03-03T22:54:00.733Z,66.73
2019-03-03T22:56:08.336Z,66.95
2019-03-03T22:58:15.997Z,66.97
2019-03-03T23:00:44.324Z,67.09
2019-03-03T23:02:52.831Z,67.07
2019-03-03T23:05:10.845Z,67.12
2019-03-03T23:07:28.264Z,67.36
2019-03-03T23:10:22.776Z,67.49
2019-03-03T23:12:50.395Z,67.59
2019-03-03T23:15:27.922Z,67.73
2019-03-03T23:18:01.201Z,68.10
2019-03-03T23:20:31.564Z,68.51
2019-03-03T23:22:58.734Z,69.02
2019-03-03T23:25:28.530Z,69.17
2019-03-03T23:27:36.024Z,69.51
2019-03-03T23:29:43.598Z,69.70
2019-03-03T23:31:51.177Z,69.92
2019-03-03T23:33:58.777Z,70.14
2019-03-03T23:36:06.488Z,70.20
2019-03-03T23:38:14.134Z,70.37
2019-03-03T23:40:21.748Z,70.39
2019-03-03T23:42:29.316Z,70.11
2019-03-03T23:44:36.789Z,70.26
2019-03-03T23:46:44.529Z,70.27
2019-03-03T23:48:52.169Z,70.16
2019-03-03T23:50:59.811Z,70.24
2019-03-03T23:53:07.309Z,70.36
2019-03-03T23:55:15.345Z,70.38
2019-03-03T23:57:23.543Z,70.22
2019-03-03T23:59:31.296Z,70.31
